createdAt,value
2023-01-17T00:01:13.635Z,63.24
2023-01-17T00:03:59.028Z,63.00
2023-01-17T00:06:44.649Z,63.29
2023-01-17T00:09:31.010Z,64.22
2023-01-17T00:11:59.102Z,66.17
2023-01-17T00:14:27.263Z,70.93
2023-01-17T00:16:54.320Z,67.40
2023-01-17T00:19:41.084Z,65.15
2023-01-17T00:22:30.873Z,63.58
2023-01-17T00:25:15.959Z,62.79
2023-01-17T00:27:45.263Z,62.64
2023-01-17T00:30:14.637Z,61.61
2023-01-17T00:32:41.092Z,62.23
2023-01-17T00:35:07.869Z,62.07
2023-01-17T00:37:34.804Z,61.65
2023-01-17T00:40:02.698Z,61.62
2023-01-17T00:42:29.144Z,61.35
2023-01-17T00:45:14.091Z,61.12
2023-01-17T00:47:59.343Z,61.62
2023-01-17T00:50:44.433Z,62.39
2023-01-17T00:53:29.239Z,62.02
2023-01-17T00:56:14.511Z,64.12
2023-01-17T00:58:59.596Z,64.19
2023-01-17T01:01:44.816Z,64.18
2023-01-17T01:04:30.066Z,64.96
2023-01-17T01:07:15.411Z,64.30
2023-01-17T01:10:00.743Z,63.27
2023-01-17T01:12:45.733Z,64.25
2023-01-17T01:15:30.694Z,63.99
2023-01-17T01:18:15.425Z,63.66
2023-01-17T01:21:00.463Z,66.14
2023-01-17T01:23:45.590Z,65.35
2023-01-17T01:26:30.353Z,65.91
2023-01-17T01:29:15.557Z,67.61
2023-01-17T01:32:00.870Z,64.97
2023-01-17T01:34:27.613Z,66.23
2023-01-17T01:36:55.399Z,66.48
2023-01-17T01:39:22.157Z,66.75
2023-01-17T01:41:48.891Z,66.57
2023-01-17T01:44:34.749Z,65.77
2023-01-17T01:47:01.148Z,66.70
2023-01-17T01:49:29.563Z,66.16
2023-01-17T01:51:58.987Z,65.57
2023-01-17T01:54:27.277Z,65.96
2023-01-17T01:56:54.710Z,66.38
2023-01-17T01:59:22.877Z,66.67
2023-01-17T02:01:51.757Z,66.45
2023-01-17T02:04:19.220Z,66.34
2023-01-17T02:06:54.081Z,65.49
2023-01-17T02:09:20.751Z,67.00
2023-01-17T02:11:49.060Z,67.16
2023-01-17T02:14:16.779Z,65.93
2023-01-17T02:16:46.564Z,64.54
2023-01-17T02:19:25.080Z,64.29
2023-01-17T02:22:18.055Z,64.35
2023-01-17T02:24:56.685Z,64.70
2023-01-17T02:27:23.231Z,64.51
2023-01-17T02:29:52.626Z,64.20
2023-01-17T02:32:31.873Z,64.10
2023-01-17T02:35:01.680Z,64.59
2023-01-17T02:37:33.963Z,64.76
2023-01-17T02:40:06.737Z,64.31
2023-01-17T02:42:42.863Z,65.25
2023-01-17T02:45:14.696Z,64.35
2023-01-17T02:47:41.277Z,64.99
2023-01-17T02:50:10.167Z,65.52
2023-01-17T02:52:55.605Z,65.36
2023-01-17T02:55:32.250Z,64.35
2023-01-17T02:58:17.856Z,63.50
2023-01-17T03:01:03.114Z,63.71
2023-01-17T03:03:38.746Z,64.51
2023-01-17T03:06:25.677Z,64.83
2023-01-17T03:08:54.291Z,65.56
2023-01-17T03:11:21.119Z,65.34
2023-01-17T03:13:47.841Z,66.31
2023-01-17T03:16:17.423Z,65.42
2023-01-17T03:18:45.777Z,65.31
2023-01-17T03:21:12.318Z,65.76
2023-01-17T03:23:40.272Z,65.23
2023-01-17T03:26:06.715Z,65.07
2023-01-17T03:28:33.238Z,66.21
2023-01-17T03:31:00.036Z,65.79
2023-01-17T03:33:26.700Z,64.66
2023-01-17T03:35:54.555Z,64.30
2023-01-17T03:38:21.313Z,64.10
2023-01-17T03:40:47.946Z,64.01
2023-01-17T03:43:14.768Z,63.81
2023-01-17T03:45:41.571Z,64.80
2023-01-17T03:48:08.172Z,65.83
2023-01-17T03:50:34.913Z,65.84
2023-01-17T03:53:01.638Z,65.20
2023-01-17T03:55:28.399Z,65.62
2023-01-17T03:57:55.197Z,67.01
2023-01-17T04:00:21.851Z,67.12
2023-01-17T04:02:48.968Z,66.49
2023-01-17T04:05:15.670Z,68.24
2023-01-17T04:07:42.238Z,67.87
2023-01-17T04:10:09.183Z,66.87
2023-01-17T04:12:35.735Z,67.27
2023-01-17T04:15:02.499Z,68.10
2023-01-17T04:17:29.250Z,68.88
2023-01-17T04:19:56.125Z,68.37
2023-01-17T04:22:22.823Z,67.29
2023-01-17T04:24:49.411Z,66.73
2023-01-17T04:27:15.929Z,66.95
2023-01-17T04:29:42.289Z,66.72
2023-01-17T04:32:08.924Z,67.51
2023-01-17T04:34:35.257Z,67.17
2023-01-17T04:37:03.211Z,68.07
2023-01-17T04:39:32.813Z,67.44
2023-01-17T04:41:59.503Z,67.52
2023-01-17T04:44:26.259Z,69.18
2023-01-17T04:46:52.775Z,68.63
2023-01-17T04:49:19.292Z,69.77
2023-01-17T04:51:45.827Z,70.20
2023-01-17T04:54:12.333Z,73.57
2023-01-17T04:56:38.851Z,74.41
2023-01-17T04:59:05.506Z,76.15
2023-01-17T05:01:32.398Z,76.17
2023-01-17T05:03:59.276Z,76.60
2023-01-17T05:06:27.296Z,77.47
2023-01-17T05:08:53.869Z,76.56
2023-01-17T05:11:20.497Z,79.22
2023-01-17T05:13:47.966Z,74.60
2023-01-17T05:16:14.685Z,77.48
2023-01-17T05:18:41.237Z,76.64
2023-01-17T05:21:07.769Z,74.70
2023-01-17T05:23:34.329Z,74.85
2023-01-17T05:26:00.886Z,75.93
2023-01-17T05:28:27.399Z,76.91
2023-01-17T05:30:54.088Z,76.56
2023-01-17T05:33:20.898Z,76.38
2023-01-17T05:35:47.577Z,75.18
2023-01-17T05:38:14.359Z,74.24
2023-01-17T05:40:40.809Z,74.23
2023-01-17T05:43:10.044Z,75.80
2023-01-17T05:45:37.065Z,79.00
2023-01-17T05:48:06.883Z,75.67
2023-01-17T05:50:38.035Z,75.46
2023-01-17T05:53:06.432Z,75.39
2023-01-17T05:55:33.235Z,73.30
2023-01-17T05:58:00.480Z,70.29
2023-01-17T06:00:27.420Z,70.78
2023-01-17T06:02:55.159Z,70.96
2023-01-17T06:05:22.956Z,71.35
2023-01-17T06:07:50.058Z,71.62
2023-01-17T06:10:17.739Z,73.24
2023-01-17T06:12:44.716Z,74.58
2023-01-17T06:15:14.439Z,71.64
2023-01-17T06:17:41.766Z,75.24
2023-01-17T06:20:08.980Z,76.46
2023-01-17T06:22:36.131Z,78.87
2023-01-17T06:25:04.047Z,81.36
2023-01-17T06:27:30.897Z,80.93
2023-01-17T06:29:57.479Z,84.87
2023-01-17T06:32:24.119Z,89.10
2023-01-17T06:34:50.874Z,87.60
2023-01-17T06:37:17.406Z,89.85
2023-01-17T06:39:43.979Z,85.83
2023-01-17T06:42:10.794Z,85.86
2023-01-17T06:44:37.766Z,85.63
2023-01-17T06:47:04.447Z,88.45
2023-01-17T06:49:31.180Z,91.41
2023-01-17T06:51:57.682Z,88.50
2023-01-17T06:54:24.170Z,91.97
2023-01-17T06:56:50.649Z,93.65
2023-01-17T06:59:17.176Z,93.99
2023-01-17T07:01:44.041Z,95.57
2023-01-17T07:04:10.818Z,92.64
2023-01-17T07:06:37.273Z,93.97
2023-01-17T07:09:04.482Z,94.32
2023-01-17T07:11:31.147Z,90.03
2023-01-17T07:13:57.594Z,87.43
2023-01-17T07:16:24.664Z,88.39
2023-01-17T07:18:51.812Z,91.57
2023-01-17T07:21:19.122Z,91.01
2023-01-17T07:23:46.115Z,91.54
2023-01-17T07:26:12.510Z,90.53
2023-01-17T07:28:39.312Z,94.28
2023-01-17T07:31:07.583Z,91.76
2023-01-17T07:33:34.368Z,90.57
2023-01-17T07:36:08.108Z,92.90
2023-01-17T07:38:35.078Z,86.59
2023-01-17T07:41:01.948Z,81.72
2023-01-17T07:43:28.638Z,82.65
2023-01-17T07:45:55.165Z,83.09
2023-01-17T07:48:22.905Z,79.85
2023-01-17T07:50:56.440Z,76.89
2023-01-17T07:53:24.455Z,76.24
2023-01-17T07:55:50.968Z,78.96
2023-01-17T07:58:17.412Z,79.47
2023-01-17T08:00:46.886Z,78.71
2023-01-17T08:03:16.552Z,78.31
2023-01-17T08:05:43.943Z,80.11
2023-01-17T08:08:10.444Z,81.06
2023-01-17T08:10:37.072Z,79.97
2023-01-17T08:13:03.656Z,78.22
2023-01-17T08:15:30.530Z,77.18
2023-01-17T08:17:58.688Z,78.25
2023-01-17T08:20:27.807Z,77.57
2023-01-17T08:22:56.425Z,78.88
2023-01-17T08:25:27.924Z,78.74
2023-01-17T08:27:58.120Z,77.58
2023-01-17T08:30:24.691Z,76.26
2023-01-17T08:32:51.395Z,76.47
2023-01-17T08:35:20.204Z,78.97
2023-01-17T08:37:47.585Z,79.95
2023-01-17T08:40:19.304Z,76.83
2023-01-17T08:42:53.444Z,75.52
2023-01-17T08:45:19.997Z,73.05
2023-01-17T08:47:46.519Z,74.80
2023-01-17T08:50:13.030Z,77.68
2023-01-17T08:52:39.674Z,76.18
2023-01-17T08:55:06.528Z,74.66
2023-01-17T08:57:33.076Z,75.12
2023-01-17T08:59:59.799Z,74.14
2023-01-17T09:02:26.632Z,77.12
2023-01-17T09:04:53.786Z,77.39
2023-01-17T09:07:20.755Z,76.34
2023-01-17T09:09:47.517Z,77.35
2023-01-17T09:12:14.136Z,74.48
2023-01-17T09:14:40.605Z,76.55
2023-01-17T09:17:07.119Z,75.86
2023-01-17T09:19:33.721Z,76.61
2023-01-17T09:22:00.125Z,78.38
2023-01-17T09:24:27.011Z,76.01
2023-01-17T09:26:53.547Z,72.08
2023-01-17T09:29:20.131Z,73.24
2023-01-17T09:31:48.305Z,72.83
2023-01-17T09:34:14.686Z,71.29
2023-01-17T09:36:41.586Z,73.07
2023-01-17T09:39:10.183Z,73.70
2023-01-17T09:41:57.137Z,69.31
2023-01-17T09:44:23.990Z,74.72
2023-01-17T09:46:52.498Z,74.05
2023-01-17T09:49:41.226Z,74.65
2023-01-17T09:52:08.870Z,72.43
2023-01-17T09:54:37.869Z,75.90
2023-01-17T09:57:07.374Z,76.23
2023-01-17T09:59:35.841Z,76.70
2023-01-17T10:02:27.105Z,76.75
2023-01-17T10:05:11.564Z,78.44
2023-01-17T10:07:38.632Z,80.57
2023-01-17T10:10:06.582Z,82.35
2023-01-17T10:12:45.144Z,78.45
2023-01-17T10:15:17.755Z,75.50
2023-01-17T10:18:00.116Z,79.29
2023-01-17T10:20:34.774Z,77.76
2023-01-17T10:23:22.102Z,79.40
2023-01-17T10:25:52.531Z,81.10
2023-01-17T10:28:34.622Z,76.37
2023-01-17T10:31:06.056Z,77.59
2023-01-17T10:33:46.018Z,76.17
2023-01-17T10:36:15.535Z,77.37
2023-01-17T10:38:45.761Z,77.27
2023-01-17T10:41:15.238Z,76.04
2023-01-17T10:44:17.140Z,77.01
2023-01-17T10:46:58.612Z,75.58
2023-01-17T10:49:26.040Z,74.06
2023-01-17T10:52:08.478Z,72.87
2023-01-17T10:54:38.855Z,71.88
2023-01-17T10:57:05.246Z,73.80
2023-01-17T10:59:33.611Z,72.95
2023-01-17T11:02:00.406Z,70.89
2023-01-17T11:04:37.961Z,72.98
2023-01-17T11:07:19.806Z,74.00
2023-01-17T11:09:47.401Z,74.94
2023-01-17T11:12:20.015Z,72.25
2023-01-17T11:14:58.523Z,71.34
2023-01-17T11:17:27.531Z,69.46
2023-01-17T11:19:54.664Z,72.94
2023-01-17T11:22:21.087Z,71.73
2023-01-17T11:24:49.788Z,69.64
2023-01-17T11:27:25.453Z,73.38
2023-01-17T11:30:15.794Z,71.48
2023-01-17T11:32:55.388Z,71.91
2023-01-17T11:35:31.058Z,69.39
2023-01-17T11:38:05.347Z,70.02
2023-01-17T11:40:36.017Z,67.53
2023-01-17T11:43:12.473Z,68.38
2023-01-17T11:45:39.434Z,66.61
2023-01-17T11:48:08.774Z,66.97
2023-01-17T11:50:37.493Z,66.75
2023-01-17T11:53:07.008Z,67.97
2023-01-17T11:55:33.585Z,66.03
2023-01-17T11:58:00.584Z,65.25
2023-01-17T12:00:33.575Z,64.05
2023-01-17T12:03:23.531Z,62.64
2023-01-17T12:06:01.261Z,63.84
2023-01-17T12:08:51.320Z,63.09
2023-01-17T12:11:28.462Z,60.48
2023-01-17T12:14:01.921Z,60.92
2023-01-17T12:16:43.964Z,59.04
2023-01-17T12:19:25.583Z,59.88
2023-01-17T12:22:10.654Z,58.94
2023-01-17T12:24:50.668Z,60.12
2023-01-17T12:27:30.165Z,61.94
2023-01-17T12:30:05.672Z,63.12
2023-01-17T12:32:40.652Z,61.26
2023-01-17T12:35:13.187Z,60.09
2023-01-17T12:37:52.664Z,62.71
2023-01-17T12:40:37.190Z,60.20
2023-01-17T12:43:08.007Z,60.57
2023-01-17T12:45:44.955Z,59.47
2023-01-17T12:48:12.778Z,60.13
2023-01-17T12:50:41.451Z,59.08
2023-01-17T12:53:21.211Z,59.25
2023-01-17T12:55:53.779Z,59.68
2023-01-17T12:58:21.524Z,58.50
2023-01-17T13:00:51.612Z,58.42
2023-01-17T13:03:27.268Z,59.46
2023-01-17T13:05:55.475Z,59.59
2023-01-17T13:08:39.111Z,60.16
2023-01-17T13:11:13.053Z,58.13
2023-01-17T13:13:41.275Z,57.72
2023-01-17T13:16:08.031Z,58.62
2023-01-17T13:18:35.609Z,57.75
2023-01-17T13:21:11.051Z,59.52
2023-01-17T13:23:46.689Z,58.66
2023-01-17T13:26:31.959Z,58.25
2023-01-17T13:29:07.262Z,60.75
2023-01-17T13:31:36.858Z,59.87
2023-01-17T13:34:09.321Z,59.56
2023-01-17T13:36:54.694Z,59.48
2023-01-17T13:39:24.186Z,59.06
2023-01-17T13:41:53.178Z,59.03
2023-01-17T13:44:22.855Z,57.82
2023-01-17T13:46:58.633Z,58.50
2023-01-17T13:49:34.372Z,58.43
2023-01-17T13:52:12.119Z,58.24
2023-01-17T13:54:47.781Z,57.23
2023-01-17T13:57:24.490Z,58.24
2023-01-17T13:59:51.582Z,57.01
2023-01-17T14:02:33.179Z,56.84
2023-01-17T14:05:17.418Z,56.71
2023-01-17T14:07:49.565Z,55.69
2023-01-17T14:10:30.423Z,55.58
2023-01-17T14:12:57.189Z,55.77
2023-01-17T14:15:27.017Z,55.13
2023-01-17T14:17:56.481Z,54.08
2023-01-17T14:20:26.277Z,54.89
2023-01-17T14:22:57.937Z,54.54
2023-01-17T14:25:40.852Z,57.90
2023-01-17T14:28:21.808Z,58.08
2023-01-17T14:30:54.188Z,58.99
2023-01-17T14:33:25.119Z,58.81
2023-01-17T14:35:56.137Z,57.83
2023-01-17T14:38:24.098Z,57.82
2023-01-17T14:40:52.649Z,58.64
2023-01-17T14:43:20.605Z,57.49
2023-01-17T14:45:47.593Z,57.53
2023-01-17T14:48:21.473Z,57.02
2023-01-17T14:50:48.897Z,57.03
2023-01-17T14:53:31.440Z,57.21
2023-01-17T14:55:59.734Z,56.88
2023-01-17T14:58:28.924Z,55.78
2023-01-17T15:00:57.799Z,56.16
2023-01-17T15:03:24.712Z,55.08
2023-01-17T15:05:52.848Z,55.14
2023-01-17T15:08:21.174Z,55.63
2023-01-17T15:10:56.192Z,55.68
2023-01-17T15:13:35.587Z,55.32
2023-01-17T15:16:07.246Z,56.12
2023-01-17T15:18:37.763Z,61.99
2023-01-17T15:21:06.285Z,63.10
2023-01-17T15:23:34.986Z,63.98
2023-01-17T15:26:03.304Z,63.17
2023-01-17T15:28:30.328Z,62.81
2023-01-17T15:31:09.183Z,62.73
2023-01-17T15:33:40.132Z,62.85
2023-01-17T15:36:08.671Z,61.75
2023-01-17T15:38:40.285Z,60.93
2023-01-17T15:41:11.770Z,60.16
2023-01-17T15:43:39.693Z,59.58
2023-01-17T15:46:06.485Z,59.67
2023-01-17T15:48:44.369Z,59.30
2023-01-17T15:51:12.235Z,59.47
2023-01-17T15:53:41.104Z,59.59
2023-01-17T15:56:20.359Z,59.86
2023-01-17T15:58:50.728Z,58.87
2023-01-17T16:01:23.840Z,57.86
2023-01-17T16:03:54.513Z,59.92
2023-01-17T16:06:30.709Z,60.07
2023-01-17T16:08:57.261Z,58.81
2023-01-17T16:11:23.670Z,59.71
2023-01-17T16:13:50.407Z,59.65
2023-01-17T16:16:24.934Z,58.07
2023-01-17T16:18:58.009Z,57.94
2023-01-17T16:21:26.599Z,57.13
2023-01-17T16:23:54.448Z,58.41
2023-01-17T16:26:21.607Z,57.93
2023-01-17T16:28:50.739Z,57.42
2023-01-17T16:31:18.191Z,57.32
2023-01-17T16:33:46.331Z,57.31
2023-01-17T16:36:18.613Z,57.81
2023-01-17T16:38:45.922Z,57.39
2023-01-17T16:41:13.500Z,58.07
2023-01-17T16:43:43.467Z,58.78
2023-01-17T16:46:11.941Z,59.07
2023-01-17T16:48:45.247Z,59.16
2023-01-17T16:51:13.682Z,59.81
2023-01-17T16:53:41.698Z,60.71
2023-01-17T16:56:12.352Z,61.31
2023-01-17T16:58:41.830Z,59.70
2023-01-17T17:01:16.603Z,59.70
2023-01-17T17:03:44.169Z,59.70
2023-01-17T17:06:11.990Z,58.95
2023-01-17T17:08:42.246Z,57.95
2023-01-17T17:11:09.590Z,58.28
2023-01-17T17:13:36.773Z,59.56
2023-01-17T17:16:09.301Z,60.60
2023-01-17T17:18:36.921Z,59.90
2023-01-17T17:21:04.030Z,60.19
2023-01-17T17:23:31.466Z,58.88
2023-01-17T17:26:01.207Z,59.04
2023-01-17T17:28:28.137Z,59.45
2023-01-17T17:31:02.360Z,60.06
2023-01-17T17:33:30.649Z,59.31
2023-01-17T17:36:01.855Z,59.41
2023-01-17T17:38:28.350Z,59.41
2023-01-17T17:40:55.181Z,60.72
2023-01-17T17:43:22.064Z,60.19
2023-01-17T17:45:50.089Z,61.06
2023-01-17T17:48:17.587Z,59.64
2023-01-17T17:50:44.250Z,58.82
2023-01-17T17:53:11.136Z,59.12
2023-01-17T17:55:40.169Z,59.72
2023-01-17T17:58:06.835Z,59.56
2023-01-17T18:00:33.889Z,60.39
2023-01-17T18:03:00.523Z,59.86
2023-01-17T18:05:27.136Z,59.15
2023-01-17T18:07:53.827Z,60.09
2023-01-17T18:10:20.649Z,59.43
2023-01-17T18:12:54.717Z,60.46
2023-01-17T18:15:24.172Z,60.07
2023-01-17T18:17:56.172Z,60.79
2023-01-17T18:20:22.953Z,60.79
2023-01-17T18:22:49.545Z,61.56
2023-01-17T18:25:16.495Z,62.11
2023-01-17T18:27:48.307Z,62.62
2023-01-17T18:30:14.784Z,62.60
2023-01-17T18:32:43.894Z,63.05
2023-01-17T18:35:11.735Z,62.83
2023-01-17T18:37:38.361Z,63.87
2023-01-17T18:40:05.381Z,62.90
2023-01-17T18:42:34.287Z,62.42
2023-01-17T18:45:01.204Z,62.36
2023-01-17T18:47:29.367Z,63.61
2023-01-17T18:49:55.933Z,63.17
2023-01-17T18:52:23.736Z,63.76
2023-01-17T18:54:50.777Z,64.59
2023-01-17T18:57:18.340Z,64.04
2023-01-17T18:59:44.829Z,64.90
2023-01-17T19:02:24.344Z,63.33
2023-01-17T19:04:50.820Z,62.36
2023-01-17T19:07:18.698Z,63.00
2023-01-17T19:09:46.763Z,63.62
2023-01-17T19:12:14.719Z,64.16
2023-01-17T19:14:44.043Z,64.00
2023-01-17T19:17:18.909Z,63.06
2023-01-17T19:19:45.609Z,62.87
2023-01-17T19:22:14.960Z,63.56
2023-01-17T19:24:41.856Z,63.67
2023-01-17T19:27:11.954Z,62.83
2023-01-17T19:29:39.795Z,62.05
2023-01-17T19:32:12.767Z,62.27
2023-01-17T19:34:40.525Z,63.05
2023-01-17T19:37:10.583Z,63.30
2023-01-17T19:39:46.578Z,62.59
2023-01-17T19:42:19.021Z,62.70
2023-01-17T19:44:52.971Z,63.65
2023-01-17T19:47:25.651Z,63.50
2023-01-17T19:49:54.255Z,62.70
2023-01-17T19:52:27.004Z,63.57
2023-01-17T19:54:59.936Z,62.88
2023-01-17T19:57:37.527Z,62.97
2023-01-17T20:00:24.049Z,61.66
2023-01-17T20:03:02.604Z,61.96
2023-01-17T20:05:35.541Z,62.29
2023-01-17T20:08:09.846Z,63.70
2023-01-17T20:10:37.258Z,63.90
2023-01-17T20:13:13.689Z,63.89
2023-01-17T20:15:41.183Z,62.35
2023-01-17T20:18:14.618Z,63.42
2023-01-17T20:20:56.578Z,63.36
2023-01-17T20:23:27.396Z,62.74
2023-01-17T20:26:00.697Z,62.89
2023-01-17T20:28:33.907Z,64.27
2023-01-17T20:31:08.657Z,63.84
2023-01-17T20:33:46.616Z,63.15
2023-01-17T20:36:20.172Z,62.86
2023-01-17T20:38:54.562Z,63.26
2023-01-17T20:41:26.458Z,64.47
2023-01-17T20:43:55.065Z,66.23
2023-01-17T20:46:24.981Z,63.94
2023-01-17T20:48:53.330Z,63.73
2023-01-17T20:51:20.706Z,62.73
2023-01-17T20:53:52.125Z,62.12
2023-01-17T20:56:19.450Z,63.01
2023-01-17T20:58:46.451Z,64.21
2023-01-17T21:01:20.973Z,62.85
2023-01-17T21:03:51.187Z,62.51
2023-01-17T21:06:22.560Z,62.52
2023-01-17T21:08:49.871Z,61.64
2023-01-17T21:11:18.130Z,62.53
2023-01-17T21:13:45.412Z,63.62
2023-01-17T21:16:14.239Z,63.55
2023-01-17T21:18:42.105Z,62.73
2023-01-17T21:21:11.569Z,61.67
2023-01-17T21:23:38.961Z,62.16
2023-01-17T21:26:06.015Z,62.17
2023-01-17T21:28:37.255Z,62.48
2023-01-17T21:31:29.098Z,62.43
2023-01-17T21:34:00.558Z,62.25
2023-01-17T21:36:28.532Z,62.16
2023-01-17T21:38:56.948Z,61.19
2023-01-17T21:41:26.035Z,62.20
2023-01-17T21:43:56.722Z,62.63
2023-01-17T21:46:23.910Z,61.91
2023-01-17T21:48:50.878Z,61.93
2023-01-17T21:51:19.375Z,61.43
2023-01-17T21:53:46.315Z,61.31
2023-01-17T21:56:32.531Z,60.34
2023-01-17T21:58:59.267Z,59.01
2023-01-17T22:01:27.694Z,59.13
2023-01-17T22:03:56.058Z,59.17
2023-01-17T22:06:23.936Z,59.49
2023-01-17T22:08:50.761Z,59.95
2023-01-17T22:11:20.376Z,60.81
2023-01-17T22:13:47.444Z,60.61
2023-01-17T22:16:15.172Z,60.99
2023-01-17T22:18:42.785Z,62.80
2023-01-17T22:21:13.932Z,62.44
2023-01-17T22:23:44.785Z,62.45
2023-01-17T22:26:11.876Z,62.71
2023-01-17T22:28:39.795Z,62.46
2023-01-17T22:31:13.864Z,61.74
2023-01-17T22:33:41.651Z,61.70
2023-01-17T22:36:09.196Z,62.91
2023-01-17T22:38:36.500Z,63.42
2023-01-17T22:41:07.820Z,63.92
2023-01-17T22:43:35.440Z,63.54
2023-01-17T22:46:02.082Z,63.76
2023-01-17T22:48:30.163Z,63.69
2023-01-17T22:50:58.116Z,64.60
2023-01-17T22:53:25.159Z,65.35
2023-01-17T22:56:01.590Z,66.28
2023-01-17T22:58:28.753Z,65.54
2023-01-17T23:00:57.754Z,64.64
2023-01-17T23:03:24.623Z,63.39
2023-01-17T23:05:51.272Z,64.17
2023-01-17T23:08:19.985Z,65.24
2023-01-17T23:11:05.300Z,65.82
2023-01-17T23:13:31.704Z,66.53
2023-01-17T23:16:17.037Z,66.60
2023-01-17T23:19:02.315Z,65.65
2023-01-17T23:21:48.897Z,65.05
2023-01-17T23:24:15.245Z,65.46
2023-01-17T23:27:01.913Z,65.21
2023-01-17T23:29:28.632Z,66.01
2023-01-17T23:31:55.205Z,66.28
2023-01-17T23:34:21.810Z,65.46
2023-01-17T23:36:48.847Z,66.27
2023-01-17T23:39:18.047Z,66.73
2023-01-17T23:42:03.431Z,65.71
2023-01-17T23:44:31.812Z,65.66
2023-01-17T23:47:01.322Z,65.94
2023-01-17T23:49:29.597Z,66.66
2023-01-17T23:51:56.223Z,65.91
2023-01-17T23:54:22.896Z,64.36
2023-01-17T23:56:49.416Z,63.70
2023-01-17T23:59:16.460Z,64.12
